sensor_id;sensor_type;location;lat;lon;timestamp;P1;durP1;ratioP1;P2;durP2;ratioP2
46931;SDS011;32670;51.464;11.964;2023-08-07T00:00:04;0.73;;;0.70;;
46931;SDS011;32670;51.464;11.964;2023-08-07T00:02:30;1.10;;;1.00;;
46931;SDS011;32670;51.464;11.964;2023-08-07T00:04:56;1.10;;;0.80;;
46931;SDS011;32670;51.464;11.964;2023-08-07T00:07:22;1.40;;;0.80;;
46931;SDS011;32670;51.464;11.964;2023-08-07T00:09:49;2.50;;;0.90;;
46931;SDS011;32670;51.464;11.964;2023-08-07T00:12:15;2.50;;;1.03;;
46931;SDS011;32670;51.464;11.964;2023-08-07T00:14:40;1.90;;;0.90;;
46931;SDS011;32670;51.464;11.964;2023-08-07T00:17:06;3.00;;;0.80;;
46931;SDS011;32670;51.464;11.964;2023-08-07T00:19:31;1.47;;;0.90;;
46931;SDS011;32670;51.464;11.964;2023-08-07T00:21:57;0.80;;;0.80;;
46931;SDS011;32670;51.464;11.964;2023-08-07T00:24:22;0.80;;;0.80;;
46931;SDS011;32670;51.464;11.964;2023-08-07T00:26:48;1.10;;;0.90;;
46931;SDS011;32670;51.464;11.964;2023-08-07T00:29:13;0.73;;;0.63;;
46931;SDS011;32670;51.464;11.964;2023-08-07T00:31:39;2.97;;;0.80;;
46931;SDS011;32670;51.464;11.964;2023-08-07T00:34:04;1.03;;;0.80;;
46931;SDS011;32670;51.464;11.964;2023-08-07T00:36:30;1.83;;;0.77;;
46931;SDS011;32670;51.464;11.964;2023-08-07T00:38:59;0.70;;;0.70;;
46931;SDS011;32670;51.464;11.964;2023-08-07T00:41:25;0.60;;;0.60;;
46931;SDS011;32670;51.464;11.964;2023-08-07T00:43:51;0.80;;;0.80;;
46931;SDS011;32670;51.464;11.964;2023-08-07T00:46:16;2.73;;;0.90;;
46931;SDS011;32670;51.464;11.964;2023-08-07T00:48:42;0.80;;;0.80;;
46931;SDS011;32670;51.464;11.964;2023-08-07T00:51:08;1.13;;;0.93;;
46931;SDS011;32670;51.464;11.964;2023-08-07T00:53:37;2.03;;;0.70;;
46931;SDS011;32670;51.464;11.964;2023-08-07T00:56:03;1.90;;;0.70;;
46931;SDS011;32670;51.464;11.964;2023-08-07T00:58:29;0.70;;;0.70;;
46931;SDS011;32670;51.464;11.964;2023-08-07T01:00:55;1.23;;;0.87;;
46931;SDS011;32670;51.464;11.964;2023-08-07T01:03:21;0.70;;;0.70;;
46931;SDS011;32670;51.464;11.964;2023-08-07T01:05:46;1.00;;;0.90;;
46931;SDS011;32670;51.464;11.964;2023-08-07T01:08:12;0.70;;;0.70;;
46931;SDS011;32670;51.464;11.964;2023-08-07T01:16:53;1.13;;;0.90;;
46931;SDS011;32670;51.464;11.964;2023-08-07T01:19:30;1.23;;;1.00;;
46931;SDS011;32670;51.464;11.964;2023-08-07T01:22:09;0.83;;;0.83;;
46931;SDS011;32670;51.464;11.964;2023-08-07T01:24:40;1.83;;;0.97;;
46931;SDS011;32670;51.464;11.964;2023-08-07T01:27:15;1.93;;;1.00;;
46931;SDS011;32670;51.464;11.964;2023-08-07T01:32:59;2.07;;;0.73;;
46931;SDS011;32670;51.464;11.964;2023-08-07T01:35:44;1.77;;;0.77;;
46931;SDS011;32670;51.464;11.964;2023-08-07T01:38:12;2.43;;;0.80;;
46931;SDS011;32670;51.464;11.964;2023-08-07T01:40:39;2.87;;;0.77;;
46931;SDS011;32670;51.464;11.964;2023-08-07T01:43:06;1.73;;;0.80;;
46931;SDS011;32670;51.464;11.964;2023-08-07T01:45:32;0.97;;;0.87;;
46931;SDS011;32670;51.464;11.964;2023-08-07T01:47:58;0.97;;;0.80;;
46931;SDS011;32670;51.464;11.964;2023-08-07T01:50:24;1.10;;;0.90;;
46931;SDS011;32670;51.464;11.964;2023-08-07T01:52:50;0.70;;;0.70;;
46931;SDS011;32670;51.464;11.964;2023-08-07T01:55:16;1.43;;;0.70;;
46931;SDS011;32670;51.464;11.964;2023-08-07T01:57:42;0.80;;;0.70;;
46931;SDS011;32670;51.464;11.964;2023-08-07T02:00:08;1.60;;;0.73;;
46931;SDS011;32670;51.464;11.964;2023-08-07T02:02:35;1.07;;;0.90;;
46931;SDS011;32670;51.464;11.964;2023-08-07T02:05:01;0.60;;;0.60;;
46931;SDS011;32670;51.464;11.964;2023-08-07T02:07:27;1.33;;;0.73;;
46931;SDS011;32670;51.464;11.964;2023-08-07T02:09:52;1.97;;;0.80;;
46931;SDS011;32670;51.464;11.964;2023-08-07T02:12:18;0.80;;;0.80;;
46931;SDS011;32670;51.464;11.964;2023-08-07T02:14:43;1.30;;;0.93;;
46931;SDS011;32670;51.464;11.964;2023-08-07T02:17:09;0.90;;;0.90;;
46931;SDS011;32670;51.464;11.964;2023-08-07T02:19:34;0.67;;;0.67;;
46931;SDS011;32670;51.464;11.964;2023-08-07T02:22:00;0.90;;;0.90;;
46931;SDS011;32670;51.464;11.964;2023-08-07T02:24:26;1.30;;;1.00;;
46931;SDS011;32670;51.464;11.964;2023-08-07T02:26:52;1.57;;;1.10;;
46931;SDS011;32670;51.464;11.964;2023-08-07T02:29:17;1.20;;;0.90;;
46931;SDS011;32670;51.464;11.964;2023-08-07T02:31:43;1.77;;;1.00;;
46931;SDS011;32670;51.464;11.964;2023-08-07T02:34:08;1.60;;;1.00;;
46931;SDS011;32670;51.464;11.964;2023-08-07T02:36:34;1.03;;;0.80;;
46931;SDS011;32670;51.464;11.964;2023-08-07T02:38:59;1.47;;;0.80;;
46931;SDS011;32670;51.464;11.964;2023-08-07T02:41:25;1.40;;;1.00;;
46931;SDS011;32670;51.464;11.964;2023-08-07T02:43:50;1.33;;;1.00;;
46931;SDS011;32670;51.464;11.964;2023-08-07T02:46:16;1.00;;;0.90;;
46931;SDS011;32670;51.464;11.964;2023-08-07T02:48:43;1.40;;;1.03;;
46931;SDS011;32670;51.464;11.964;2023-08-07T02:51:08;1.13;;;0.87;;
46931;SDS011;32670;51.464;11.964;2023-08-07T02:53:34;1.27;;;0.90;;
46931;SDS011;32670;51.464;11.964;2023-08-07T02:55:59;1.00;;;0.80;;
46931;SDS011;32670;51.464;11.964;2023-08-07T02:58:25;0.87;;;0.80;;
46931;SDS011;32670;51.464;11.964;2023-08-07T03:00:51;0.90;;;0.90;;
46931;SDS011;32670;51.464;11.964;2023-08-07T03:03:16;0.70;;;0.70;;
46931;SDS011;32670;51.464;11.964;2023-08-07T03:05:48;0.93;;;0.80;;
46931;SDS011;32670;51.464;11.964;2023-08-07T03:08:15;1.03;;;0.73;;
46931;SDS011;32670;51.464;11.964;2023-08-07T03:10:40;1.43;;;1.00;;
46931;SDS011;32670;51.464;11.964;2023-08-07T03:13:06;1.27;;;0.70;;
46931;SDS011;32670;51.464;11.964;2023-08-07T03:15:31;0.80;;;0.80;;
46931;SDS011;32670;51.464;11.964;2023-08-07T03:17:57;1.13;;;0.73;;
46931;SDS011;32670;51.464;11.964;2023-08-07T03:20:22;1.13;;;1.00;;
46931;SDS011;32670;51.464;11.964;2023-08-07T03:22:48;0.53;;;0.53;;
46931;SDS011;32670;51.464;11.964;2023-08-07T03:25:13;1.00;;;0.90;;
46931;SDS011;32670;51.464;11.964;2023-08-07T03:27:39;0.63;;;0.60;;
46931;SDS011;32670;51.464;11.964;2023-08-07T03:30:04;0.70;;;0.70;;
46931;SDS011;32670;51.464;11.964;2023-08-07T03:32:30;0.60;;;0.60;;
46931;SDS011;32670;51.464;11.964;2023-08-07T03:34:56;3.30;;;0.97;;
46931;SDS011;32670;51.464;11.964;2023-08-07T03:37:21;1.90;;;0.80;;
46931;SDS011;32670;51.464;11.964;2023-08-07T03:39:47;0.97;;;0.90;;
46931;SDS011;32670;51.464;11.964;2023-08-07T03:42:13;1.87;;;0.93;;
46931;SDS011;32670;51.464;11.964;2023-08-07T03:44:40;1.90;;;0.87;;
46931;SDS011;32670;51.464;11.964;2023-08-07T03:47:05;3.13;;;1.00;;
46931;SDS011;32670;51.464;11.964;2023-08-07T03:49:31;1.13;;;1.00;;
46931;SDS011;32670;51.464;11.964;2023-08-07T03:51:57;1.77;;;0.90;;
46931;SDS011;32670;51.464;11.964;2023-08-07T03:54:24;2.27;;;1.00;;
46931;SDS011;32670;51.464;11.964;2023-08-07T03:56:49;1.73;;;1.00;;
46931;SDS011;32670;51.464;11.964;2023-08-07T03:59:16;2.60;;;0.93;;
46931;SDS011;32670;51.464;11.964;2023-08-07T04:01:41;1.67;;;1.03;;
46931;SDS011;32670;51.464;11.964;2023-08-07T04:04:07;1.03;;;0.80;;
46931;SDS011;32670;51.464;11.964;2023-08-07T04:06:32;0.87;;;0.87;;
46931;SDS011;32670;51.464;11.964;2023-08-07T04:08:58;0.97;;;0.90;;
46931;SDS011;32670;51.464;11.964;2023-08-07T04:11:23;1.17;;;0.80;;
46931;SDS011;32670;51.464;11.964;2023-08-07T04:13:49;1.40;;;0.80;;
46931;SDS011;32670;51.464;11.964;2023-08-07T04:16:15;1.23;;;0.90;;
46931;SDS011;32670;51.464;11.964;2023-08-07T04:18:41;1.50;;;1.00;;
46931;SDS011;32670;51.464;11.964;2023-08-07T04:21:07;0.80;;;0.53;;
46931;SDS011;32670;51.464;11.964;2023-08-07T04:23:33;0.70;;;0.70;;
46931;SDS011;32670;51.464;11.964;2023-08-07T04:25:58;2.07;;;0.77;;
46931;SDS011;32670;51.464;11.964;2023-08-07T04:28:24;0.73;;;0.70;;
46931;SDS011;32670;51.464;11.964;2023-08-07T04:30:50;0.60;;;0.60;;
46931;SDS011;32670;51.464;11.964;2023-08-07T04:33:16;1.63;;;0.70;;
46931;SDS011;32670;51.464;11.964;2023-08-07T04:35:42;1.73;;;0.70;;
46931;SDS011;32670;51.464;11.964;2023-08-07T04:38:08;0.80;;;0.70;;
46931;SDS011;32670;51.464;11.964;2023-08-07T04:40:34;2.17;;;0.80;;
46931;SDS011;32670;51.464;11.964;2023-08-07T04:42:59;1.07;;;0.70;;
46931;SDS011;32670;51.464;11.964;2023-08-07T04:45:25;1.87;;;0.67;;
46931;SDS011;32670;51.464;11.964;2023-08-07T04:47:50;3.73;;;0.93;;
46931;SDS011;32670;51.464;11.964;2023-08-07T04:50:16;4.13;;;0.80;;
46931;SDS011;32670;51.464;11.964;2023-08-07T04:52:42;0.60;;;0.60;;
46931;SDS011;32670;51.464;11.964;2023-08-07T04:55:07;2.10;;;0.60;;
46931;SDS011;32670;51.464;11.964;2023-08-07T04:57:33;0.70;;;0.60;;
46931;SDS011;32670;51.464;11.964;2023-08-07T04:59:58;0.97;;;0.60;;
46931;SDS011;32670;51.464;11.964;2023-08-07T05:02:24;1.40;;;0.60;;
46931;SDS011;32670;51.464;11.964;2023-08-07T05:04:49;0.70;;;0.63;;
46931;SDS011;32670;51.464;11.964;2023-08-07T05:07:15;1.80;;;0.77;;
46931;SDS011;32670;51.464;11.964;2023-08-07T05:09:40;2.63;;;0.90;;
46931;SDS011;32670;51.464;11.964;2023-08-07T05:12:06;0.80;;;0.80;;
46931;SDS011;32670;51.464;11.964;2023-08-07T05:14:32;3.23;;;0.90;;
46931;SDS011;32670;51.464;11.964;2023-08-07T05:16:57;4.00;;;0.97;;
46931;SDS011;32670;51.464;11.964;2023-08-07T05:19:24;3.43;;;0.83;;
46931;SDS011;32670;51.464;11.964;2023-08-07T05:21:50;3.27;;;0.80;;
46931;SDS011;32670;51.464;11.964;2023-08-07T05:24:16;2.60;;;0.90;;
46931;SDS011;32670;51.464;11.964;2023-08-07T05:26:42;1.10;;;0.70;;
46931;SDS011;32670;51.464;11.964;2023-08-07T05:29:07;2.57;;;0.90;;
46931;SDS011;32670;51.464;11.964;2023-08-07T05:31:33;1.63;;;0.77;;
46931;SDS011;32670;51.464;11.964;2023-08-07T05:33:59;1.50;;;1.00;;
46931;SDS011;32670;51.464;11.964;2023-08-07T05:36:24;2.20;;;0.90;;
46931;SDS011;32670;51.464;11.964;2023-08-07T05:38:50;6.73;;;1.00;;
46931;SDS011;32670;51.464;11.964;2023-08-07T05:41:15;2.00;;;0.70;;
46931;SDS011;32670;51.464;11.964;2023-08-07T05:43:41;1.50;;;0.97;;
46931;SDS011;32670;51.464;11.964;2023-08-07T05:46:07;1.83;;;0.80;;
46931;SDS011;32670;51.464;11.964;2023-08-07T05:48:32;2.33;;;1.07;;
46931;SDS011;32670;51.464;11.964;2023-08-07T05:50:58;1.03;;;0.80;;
46931;SDS011;32670;51.464;11.964;2023-08-07T05:53:23;2.53;;;1.13;;
46931;SDS011;32670;51.464;11.964;2023-08-07T05:55:49;2.03;;;0.87;;
46931;SDS011;32670;51.464;11.964;2023-08-07T05:58:14;2.10;;;0.90;;
46931;SDS011;32670;51.464;11.964;2023-08-07T06:00:40;1.93;;;0.90;;
46931;SDS011;32670;51.464;11.964;2023-08-07T06:03:05;1.37;;;0.80;;
46931;SDS011;32670;51.464;11.964;2023-08-07T06:05:31;1.77;;;0.83;;
46931;SDS011;32670;51.464;11.964;2023-08-07T06:07:56;2.13;;;0.80;;
46931;SDS011;32670;51.464;11.964;2023-08-07T06:10:22;2.60;;;0.90;;
46931;SDS011;32670;51.464;11.964;2023-08-07T06:12:47;1.00;;;0.90;;
46931;SDS011;32670;51.464;11.964;2023-08-07T06:15:13;1.93;;;1.00;;
46931;SDS011;32670;51.464;11.964;2023-08-07T06:17:38;1.40;;;0.90;;
46931;SDS011;32670;51.464;11.964;2023-08-07T06:20:05;2.30;;;1.10;;
46931;SDS011;32670;51.464;11.964;2023-08-07T06:22:34;2.43;;;1.03;;
46931;SDS011;32670;51.464;11.964;2023-08-07T06:24:59;1.57;;;0.90;;
46931;SDS011;32670;51.464;11.964;2023-08-07T06:27:25;1.90;;;0.90;;
46931;SDS011;32670;51.464;11.964;2023-08-07T06:29:50;6.23;;;1.37;;
46931;SDS011;32670;51.464;11.964;2023-08-07T06:32:16;7.97;;;1.23;;
46931;SDS011;32670;51.464;11.964;2023-08-07T06:34:43;3.93;;;1.17;;
46931;SDS011;32670;51.464;11.964;2023-08-07T06:37:09;3.47;;;0.97;;
46931;SDS011;32670;51.464;11.964;2023-08-07T06:39:34;5.43;;;1.43;;
46931;SDS011;32670;51.464;11.964;2023-08-07T06:42:00;3.50;;;1.40;;
46931;SDS011;32670;51.464;11.964;2023-08-07T06:44:25;5.77;;;1.00;;
46931;SDS011;32670;51.464;11.964;2023-08-07T06:46:51;1.90;;;1.03;;
46931;SDS011;32670;51.464;11.964;2023-08-07T06:49:17;3.90;;;1.10;;
46931;SDS011;32670;51.464;11.964;2023-08-07T06:51:42;2.50;;;0.97;;
46931;SDS011;32670;51.464;11.964;2023-08-07T06:54:08;3.13;;;0.80;;
46931;SDS011;32670;51.464;11.964;2023-08-07T06:56:33;3.17;;;0.93;;
46931;SDS011;32670;51.464;11.964;2023-08-07T06:58:59;2.80;;;1.07;;
46931;SDS011;32670;51.464;11.964;2023-08-07T07:01:24;2.97;;;0.90;;
46931;SDS011;32670;51.464;11.964;2023-08-07T07:03:50;3.90;;;0.90;;
46931;SDS011;32670;51.464;11.964;2023-08-07T07:06:17;2.77;;;1.27;;
46931;SDS011;32670;51.464;11.964;2023-08-07T07:08:43;4.30;;;1.40;;
46931;SDS011;32670;51.464;11.964;2023-08-07T07:11:09;2.37;;;0.80;;
46931;SDS011;32670;51.464;11.964;2023-08-07T07:13:34;1.50;;;0.97;;
46931;SDS011;32670;51.464;11.964;2023-08-07T07:16:00;2.53;;;0.83;;
46931;SDS011;32670;51.464;11.964;2023-08-07T07:18:25;2.33;;;1.30;;
46931;SDS011;32670;51.464;11.964;2023-08-07T07:20:56;3.73;;;1.10;;
46931;SDS011;32670;51.464;11.964;2023-08-07T07:23:25;3.03;;;1.00;;
46931;SDS011;32670;51.464;11.964;2023-08-07T07:25:50;1.10;;;1.00;;
46931;SDS011;32670;51.464;11.964;2023-08-07T07:28:16;2.57;;;1.20;;
46931;SDS011;32670;51.464;11.964;2023-08-07T07:30:41;1.90;;;0.90;;
46931;SDS011;32670;51.464;11.964;2023-08-07T07:33:10;1.47;;;0.87;;
46931;SDS011;32670;51.464;11.964;2023-08-07T07:35:38;2.17;;;1.00;;
46931;SDS011;32670;51.464;11.964;2023-08-07T07:38:06;1.67;;;0.90;;
46931;SDS011;32670;51.464;11.964;2023-08-07T07:40:31;1.40;;;1.00;;
46931;SDS011;32670;51.464;11.964;2023-08-07T07:42:57;1.20;;;1.10;;
46931;SDS011;32670;51.464;11.964;2023-08-07T07:45:22;1.40;;;1.10;;
46931;SDS011;32670;51.464;11.964;2023-08-07T07:47:48;1.90;;;1.20;;
46931;SDS011;32670;51.464;11.964;2023-08-07T07:50:13;1.60;;;0.90;;
46931;SDS011;32670;51.464;11.964;2023-08-07T07:52:39;2.37;;;1.30;;
46931;SDS011;32670;51.464;11.964;2023-08-07T07:55:04;1.33;;;1.23;;
46931;SDS011;32670;51.464;11.964;2023-08-07T07:57:31;2.13;;;1.03;;
46931;SDS011;32670;51.464;11.964;2023-08-07T07:59:56;1.40;;;1.30;;
46931;SDS011;32670;51.464;11.964;2023-08-07T08:02:22;1.60;;;1.20;;
46931;SDS011;32670;51.464;11.964;2023-08-07T08:04:51;1.80;;;1.20;;
46931;SDS011;32670;51.464;11.964;2023-08-07T08:07:16;2.63;;;1.20;;
46931;SDS011;32670;51.464;11.964;2023-08-07T08:09:42;1.57;;;1.03;;
46931;SDS011;32670;51.464;11.964;2023-08-07T08:12:07;2.03;;;1.30;;
46931;SDS011;32670;51.464;11.964;2023-08-07T08:14:33;2.67;;;1.27;;
46931;SDS011;32670;51.464;11.964;2023-08-07T08:16:59;1.37;;;1.27;;
46931;SDS011;32670;51.464;11.964;2023-08-07T08:19:24;2.20;;;1.80;;
46931;SDS011;32670;51.464;11.964;2023-08-07T08:21:50;2.40;;;1.30;;
46931;SDS011;32670;51.464;11.964;2023-08-07T08:24:15;2.20;;;1.80;;
46931;SDS011;32670;51.464;11.964;2023-08-07T08:26:41;2.60;;;1.80;;
46931;SDS011;32670;51.464;11.964;2023-08-07T08:29:06;2.40;;;2.17;;
46931;SDS011;32670;51.464;11.964;2023-08-07T08:31:33;2.67;;;2.07;;
46931;SDS011;32670;51.464;11.964;2023-08-07T08:33:58;2.77;;;2.30;;
46931;SDS011;32670;51.464;11.964;2023-08-07T08:36:24;3.00;;;2.27;;
46931;SDS011;32670;51.464;11.964;2023-08-07T08:38:50;2.43;;;2.20;;
46931;SDS011;32670;51.464;11.964;2023-08-07T08:41:16;3.70;;;2.43;;
46931;SDS011;32670;51.464;11.964;2023-08-07T08:43:42;2.50;;;2.03;;
46931;SDS011;32670;51.464;11.964;2023-08-07T08:46:11;2.37;;;2.17;;
46931;SDS011;32670;51.464;11.964;2023-08-07T08:48:39;2.93;;;2.63;;
46931;SDS011;32670;51.464;11.964;2023-08-07T08:51:07;3.57;;;2.40;;
46931;SDS011;32670;51.464;11.964;2023-08-07T08:53:34;2.40;;;2.03;;
46931;SDS011;32670;51.464;11.964;2023-08-07T08:56:00;3.23;;;2.33;;
46931;SDS011;32670;51.464;11.964;2023-08-07T08:58:26;3.20;;;2.60;;
46931;SDS011;32670;51.464;11.964;2023-08-07T09:00:53;2.83;;;2.53;;
46931;SDS011;32670;51.464;11.964;2023-08-07T09:03:18;3.13;;;2.67;;
46931;SDS011;32670;51.464;11.964;2023-08-07T09:05:44;3.70;;;2.90;;
46931;SDS011;32670;51.464;11.964;2023-08-07T09:08:12;3.07;;;2.77;;
46931;SDS011;32670;51.464;11.964;2023-08-07T09:10:38;2.83;;;2.57;;
46931;SDS011;32670;51.464;11.964;2023-08-07T09:13:04;2.80;;;2.60;;
46931;SDS011;32670;51.464;11.964;2023-08-07T09:15:34;2.67;;;2.47;;
46931;SDS011;32670;51.464;11.964;2023-08-07T09:18:03;3.40;;;2.90;;
46931;SDS011;32670;51.464;11.964;2023-08-07T09:20:32;3.13;;;2.83;;
46931;SDS011;32670;51.464;11.964;2023-08-07T09:22:59;3.17;;;2.87;;
46931;SDS011;32670;51.464;11.964;2023-08-07T09:25:28;3.03;;;2.73;;
46931;SDS011;32670;51.464;11.964;2023-08-07T09:27:56;3.17;;;2.93;;
46931;SDS011;32670;51.464;11.964;2023-08-07T09:30:28;3.23;;;2.87;;
46931;SDS011;32670;51.464;11.964;2023-08-07T09:32:56;3.67;;;3.30;;
46931;SDS011;32670;51.464;11.964;2023-08-07T09:35:22;4.67;;;3.67;;
46931;SDS011;32670;51.464;11.964;2023-08-07T09:37:48;4.03;;;3.63;;
46931;SDS011;32670;51.464;11.964;2023-08-07T09:40:14;4.70;;;3.43;;
46931;SDS011;32670;51.464;11.964;2023-08-07T09:42:41;3.77;;;3.37;;
46931;SDS011;32670;51.464;11.964;2023-08-07T09:45:23;3.60;;;3.30;;
46931;SDS011;32670;51.464;11.964;2023-08-07T09:47:59;5.00;;;3.67;;
46931;SDS011;32670;51.464;11.964;2023-08-07T09:50:29;5.37;;;3.87;;
46931;SDS011;32670;51.464;11.964;2023-08-07T09:52:55;3.83;;;3.53;;
46931;SDS011;32670;51.464;11.964;2023-08-07T09:55:22;4.13;;;3.73;;
46931;SDS011;32670;51.464;11.964;2023-08-07T09:57:49;4.30;;;3.73;;
46931;SDS011;32670;51.464;11.964;2023-08-07T10:00:15;3.67;;;3.37;;
46931;SDS011;32670;51.464;11.964;2023-08-07T10:02:44;3.70;;;3.40;;
46931;SDS011;32670;51.464;11.964;2023-08-07T10:05:12;4.17;;;3.70;;
46931;SDS011;32670;51.464;11.964;2023-08-07T10:07:38;3.80;;;3.50;;
46931;SDS011;32670;51.464;11.964;2023-08-07T10:10:05;3.77;;;3.47;;
46931;SDS011;32670;51.464;11.964;2023-08-07T10:12:35;3.50;;;3.20;;
46931;SDS011;32670;51.464;11.964;2023-08-07T10:15:01;3.73;;;3.43;;
46931;SDS011;32670;51.464;11.964;2023-08-07T10:17:27;4.13;;;3.50;;
46931;SDS011;32670;51.464;11.964;2023-08-07T10:19:54;4.07;;;3.67;;
46931;SDS011;32670;51.464;11.964;2023-08-07T10:22:20;4.03;;;3.63;;
46931;SDS011;32670;51.464;11.964;2023-08-07T10:24:49;3.93;;;3.53;;
46931;SDS011;32670;51.464;11.964;2023-08-07T10:27:18;4.17;;;3.77;;
46931;SDS011;32670;51.464;11.964;2023-08-07T10:29:46;4.20;;;3.80;;
46931;SDS011;32670;51.464;11.964;2023-08-07T10:32:13;3.87;;;3.57;;
46931;SDS011;32670;51.464;11.964;2023-08-07T10:34:40;3.50;;;3.20;;
46931;SDS011;32670;51.464;11.964;2023-08-07T10:37:15;4.23;;;3.33;;
46931;SDS011;32670;51.464;11.964;2023-08-07T10:40:03;5.63;;;3.60;;
46931;SDS011;32670;51.464;11.964;2023-08-07T10:42:49;3.93;;;3.53;;
46931;SDS011;32670;51.464;11.964;2023-08-07T10:45:18;3.80;;;3.43;;
46931;SDS011;32670;51.464;11.964;2023-08-07T10:47:56;3.57;;;3.27;;
46931;SDS011;32670;51.464;11.964;2023-08-07T10:50:27;3.73;;;3.43;;
46931;SDS011;32670;51.464;11.964;2023-08-07T10:52:54;3.70;;;3.40;;
46931;SDS011;32670;51.464;11.964;2023-08-07T10:55:19;4.33;;;3.40;;
46931;SDS011;32670;51.464;11.964;2023-08-07T10:57:46;3.53;;;3.23;;
46931;SDS011;32670;51.464;11.964;2023-08-07T11:00:12;3.90;;;3.60;;
46931;SDS011;32670;51.464;11.964;2023-08-07T11:02:38;3.87;;;3.50;;
46931;SDS011;32670;51.464;11.964;2023-08-07T11:05:06;4.83;;;3.73;;
46931;SDS011;32670;51.464;11.964;2023-08-07T11:07:33;3.90;;;3.60;;
46931;SDS011;32670;51.464;11.964;2023-08-07T11:09:59;3.70;;;3.40;;
46931;SDS011;32670;51.464;11.964;2023-08-07T11:12:25;4.13;;;3.73;;
46931;SDS011;32670;51.464;11.964;2023-08-07T11:14:51;4.20;;;3.33;;
46931;SDS011;32670;51.464;11.964;2023-08-07T11:17:18;3.80;;;3.50;;
46931;SDS011;32670;51.464;11.964;2023-08-07T11:19:46;4.70;;;4.30;;
46931;SDS011;32670;51.464;11.964;2023-08-07T11:22:12;3.27;;;3.07;;
46931;SDS011;32670;51.464;11.964;2023-08-07T11:24:39;4.33;;;3.90;;
46931;SDS011;32670;51.464;11.964;2023-08-07T11:27:05;4.90;;;4.50;;
46931;SDS011;32670;51.464;11.964;2023-08-07T11:29:32;4.30;;;3.90;;
46931;SDS011;32670;51.464;11.964;2023-08-07T11:31:58;4.20;;;3.90;;
46931;SDS011;32670;51.464;11.964;2023-08-07T11:34:24;4.77;;;4.17;;
46931;SDS011;32670;51.464;11.964;2023-08-07T11:36:50;4.30;;;3.83;;
46931;SDS011;32670;51.464;11.964;2023-08-07T11:39:16;4.43;;;3.97;;
46931;SDS011;32670;51.464;11.964;2023-08-07T11:41:42;5.13;;;4.20;;
46931;SDS011;32670;51.464;11.964;2023-08-07T11:44:09;4.47;;;4.07;;
46931;SDS011;32670;51.464;11.964;2023-08-07T11:46:35;4.30;;;3.90;;
46931;SDS011;32670;51.464;11.964;2023-08-07T11:49:01;6.67;;;4.80;;
46931;SDS011;32670;51.464;11.964;2023-08-07T11:51:28;5.40;;;4.90;;
46931;SDS011;32670;51.464;11.964;2023-08-07T11:53:54;5.20;;;4.70;;
46931;SDS011;32670;51.464;11.964;2023-08-07T11:56:23;5.10;;;4.60;;
46931;SDS011;32670;51.464;11.964;2023-08-07T11:58:50;4.73;;;4.33;;
46931;SDS011;32670;51.464;11.964;2023-08-07T12:01:17;4.83;;;4.43;;
46931;SDS011;32670;51.464;11.964;2023-08-07T12:03:58;5.20;;;4.80;;
46931;SDS011;32670;51.464;11.964;2023-08-07T12:06:34;5.30;;;4.80;;
46931;SDS011;32670;51.464;11.964;2023-08-07T12:09:08;5.63;;;5.13;;
46931;SDS011;32670;51.464;11.964;2023-08-07T12:11:37;6.03;;;5.40;;
46931;SDS011;32670;51.464;11.964;2023-08-07T12:14:03;6.63;;;6.00;;
46931;SDS011;32670;51.464;11.964;2023-08-07T12:16:32;6.73;;;6.10;;
46931;SDS011;32670;51.464;11.964;2023-08-07T12:18:59;6.77;;;5.83;;
46931;SDS011;32670;51.464;11.964;2023-08-07T12:21:25;5.60;;;5.17;;
46931;SDS011;32670;51.464;11.964;2023-08-07T12:23:54;6.23;;;5.63;;
46931;SDS011;32670;51.464;11.964;2023-08-07T12:26:20;6.73;;;6.13;;
46931;SDS011;32670;51.464;11.964;2023-08-07T12:28:46;6.10;;;5.60;;
46931;SDS011;32670;51.464;11.964;2023-08-07T12:31:11;6.80;;;6.10;;
46931;SDS011;32670;51.464;11.964;2023-08-07T12:33:37;5.67;;;5.17;;
46931;SDS011;32670;51.464;11.964;2023-08-07T12:36:02;5.77;;;5.27;;
46931;SDS011;32670;51.464;11.964;2023-08-07T12:38:28;5.97;;;5.47;;
46931;SDS011;32670;51.464;11.964;2023-08-07T12:40:54;5.10;;;4.70;;
46931;SDS011;32670;51.464;11.964;2023-08-07T12:43:20;5.57;;;5.07;;
46931;SDS011;32670;51.464;11.964;2023-08-07T12:45:45;5.30;;;4.80;;
46931;SDS011;32670;51.464;11.964;2023-08-07T12:48:11;5.40;;;4.90;;
46931;SDS011;32670;51.464;11.964;2023-08-07T12:50:37;4.77;;;4.07;;
46931;SDS011;32670;51.464;11.964;2023-08-07T12:53:03;4.83;;;4.43;;
46931;SDS011;32670;51.464;11.964;2023-08-07T12:55:28;4.83;;;4.40;;
46931;SDS011;32670;51.464;11.964;2023-08-07T12:57:54;5.27;;;4.77;;
46931;SDS011;32670;51.464;11.964;2023-08-07T13:00:21;5.80;;;5.30;;
46931;SDS011;32670;51.464;11.964;2023-08-07T13:02:48;4.97;;;4.57;;
46931;SDS011;32670;51.464;11.964;2023-08-07T13:05:15;5.60;;;5.10;;
46931;SDS011;32670;51.464;11.964;2023-08-07T13:07:43;5.70;;;5.20;;
46931;SDS011;32670;51.464;11.964;2023-08-07T13:10:09;5.30;;;4.83;;
46931;SDS011;32670;51.464;11.964;2023-08-07T13:12:40;5.30;;;4.80;;
46931;SDS011;32670;51.464;11.964;2023-08-07T13:15:08;4.77;;;4.37;;
46931;SDS011;32670;51.464;11.964;2023-08-07T13:17:34;5.30;;;4.80;;
46931;SDS011;32670;51.464;11.964;2023-08-07T13:20:01;5.50;;;5.00;;
46931;SDS011;32670;51.464;11.964;2023-08-07T13:22:31;5.33;;;4.83;;
46931;SDS011;32670;51.464;11.964;2023-08-07T13:24:57;4.93;;;4.53;;
46931;SDS011;32670;51.464;11.964;2023-08-07T13:27:22;6.03;;;5.40;;
46931;SDS011;32670;51.464;11.964;2023-08-07T13:29:48;5.90;;;5.40;;
46931;SDS011;32670;51.464;11.964;2023-08-07T13:32:13;4.57;;;4.17;;
46931;SDS011;32670;51.464;11.964;2023-08-07T13:34:39;5.70;;;5.30;;
46931;SDS011;32670;51.464;11.964;2023-08-07T13:37:05;5.27;;;4.80;;
46931;SDS011;32670;51.464;11.964;2023-08-07T13:39:31;5.20;;;4.80;;
46931;SDS011;32670;51.464;11.964;2023-08-07T13:41:57;5.40;;;4.90;;
46931;SDS011;32670;51.464;11.964;2023-08-07T13:44:24;5.47;;;5.07;;
46931;SDS011;32670;51.464;11.964;2023-08-07T13:46:50;5.47;;;4.90;;
46931;SDS011;32670;51.464;11.964;2023-08-07T13:49:17;5.70;;;5.07;;
46931;SDS011;32670;51.464;11.964;2023-08-07T13:51:42;5.30;;;4.80;;
46931;SDS011;32670;51.464;11.964;2023-08-07T13:54:08;5.57;;;5.07;;
46931;SDS011;32670;51.464;11.964;2023-08-07T13:56:34;4.80;;;4.27;;
46931;SDS011;32670;51.464;11.964;2023-08-07T13:59:00;5.10;;;4.60;;
46931;SDS011;32670;51.464;11.964;2023-08-07T14:01:25;5.53;;;4.40;;
46931;SDS011;32670;51.464;11.964;2023-08-07T14:03:51;5.63;;;5.03;;
46931;SDS011;32670;51.464;11.964;2023-08-07T14:06:17;5.20;;;4.80;;
46931;SDS011;32670;51.464;11.964;2023-08-07T14:08:42;5.27;;;4.77;;
46931;SDS011;32670;51.464;11.964;2023-08-07T14:11:08;4.60;;;4.20;;
46931;SDS011;32670;51.464;11.964;2023-08-07T14:13:33;5.33;;;4.70;;
46931;SDS011;32670;51.464;11.964;2023-08-07T14:15:59;5.00;;;4.60;;
46931;SDS011;32670;51.464;11.964;2023-08-07T14:18:24;5.07;;;4.57;;
46931;SDS011;32670;51.464;11.964;2023-08-07T14:20:50;4.57;;;4.20;;
46931;SDS011;32670;51.464;11.964;2023-08-07T14:23:15;4.80;;;4.40;;
46931;SDS011;32670;51.464;11.964;2023-08-07T14:25:41;5.73;;;4.57;;
46931;SDS011;32670;51.464;11.964;2023-08-07T14:28:06;4.90;;;4.50;;
46931;SDS011;32670;51.464;11.964;2023-08-07T14:30:33;4.33;;;3.67;;
46931;SDS011;32670;51.464;11.964;2023-08-07T14:32:58;4.30;;;4.00;;
46931;SDS011;32670;51.464;11.964;2023-08-07T14:35:24;5.23;;;4.73;;
46931;SDS011;32670;51.464;11.964;2023-08-07T14:37:49;4.70;;;4.30;;